createdAt,value
2022-12-11T00:01:10.340Z,97431.81
2022-12-11T00:03:38.252Z,97432.72
2022-12-11T00:06:08.651Z,97429.34
2022-12-11T00:08:37.378Z,97426.16
2022-12-11T00:11:06.264Z,97425.59
2022-12-11T00:13:34.110Z,97425.94
2022-12-11T00:16:03.078Z,97435.31
2022-12-11T00:18:36.506Z,97434.50
2022-12-11T00:21:05.488Z,97436.31
2022-12-11T00:23:36.794Z,97443.06
2022-12-11T00:26:06.792Z,97442.84
2022-12-11T00:28:35.492Z,97441.09
2022-12-11T00:31:05.397Z,97435.41
2022-12-11T00:33:33.348Z,97435.88
2022-12-11T00:36:00.992Z,97442.44
2022-12-11T00:38:29.005Z,97449.41
2022-12-11T00:41:01.054Z,97445.63
2022-12-11T00:43:28.725Z,97449.47
2022-12-11T00:45:56.400Z,97450.56
2022-12-11T00:48:24.275Z,97457.91
2022-12-11T00:50:51.912Z,97458.03
2022-12-11T00:53:19.626Z,97452.69
2022-12-11T00:55:47.248Z,97458.13
2022-12-11T00:58:16.845Z,97459.13
2022-12-11T01:00:44.836Z,97457.97
2022-12-11T01:03:15.389Z,97463.06
2022-12-11T01:05:43.249Z,97463.91
2022-12-11T01:08:10.914Z,97467.84
2022-12-11T01:10:38.879Z,97472.56
2022-12-11T01:13:08.302Z,97481.47
2022-12-11T01:15:45.474Z,97480.63
2022-12-11T01:18:15.589Z,97481.13
2022-12-11T01:20:44.089Z,97478.16
2022-12-11T01:23:13.514Z,97472.78
2022-12-11T01:25:42.928Z,97476.50
2022-12-11T01:28:11.419Z,97477.31
2022-12-11T01:30:45.465Z,97476.50
2022-12-11T01:33:13.476Z,97469.78
2022-12-11T01:35:41.690Z,97471.50
2022-12-11T01:38:11.405Z,97470.75
2022-12-11T01:40:39.098Z,97467.56
2022-12-11T01:43:06.782Z,97468.38
2022-12-11T01:45:44.570Z,97468.75
2022-12-11T01:48:15.235Z,97471.72
2022-12-11T01:50:46.182Z,97477.88
2022-12-11T01:53:18.790Z,97476.00
2022-12-11T01:55:48.727Z,97473.09
2022-12-11T01:58:18.264Z,97469.91
2022-12-11T02:00:47.810Z,97476.13
2022-12-11T02:03:15.652Z,97469.63
2022-12-11T02:05:43.292Z,97476.88
2022-12-11T02:08:11.545Z,97474.69
2022-12-11T02:14:31.326Z,97485.41
2022-12-11T02:17:04.731Z,97479.03
2022-12-11T02:19:48.341Z,97476.78
2022-12-11T02:22:28.528Z,97478.91
2022-12-11T02:25:12.117Z,97482.66
2022-12-11T02:27:45.851Z,97487.88
2022-12-11T02:30:16.429Z,97478.66
2022-12-11T02:32:48.187Z,97472.22
2022-12-11T02:35:20.013Z,97475.41
2022-12-11T02:37:49.655Z,97477.06
2022-12-11T02:40:23.153Z,97476.13
2022-12-11T02:42:53.231Z,97477.13
2022-12-11T02:45:24.487Z,97479.25
2022-12-11T02:47:53.568Z,97467.22
2022-12-11T02:50:23.494Z,97468.59
2022-12-11T02:52:55.745Z,97469.78
2022-12-11T02:55:27.248Z,97469.16
2022-12-11T02:58:01.052Z,97474.34
2022-12-11T03:00:30.355Z,97471.25
2022-12-11T03:02:58.778Z,97482.94
2022-12-11T03:05:27.962Z,97464.66
2022-12-11T03:07:55.983Z,97467.47
2022-12-11T03:10:24.220Z,97467.75
2022-12-11T03:12:55.408Z,97476.59
2022-12-11T03:15:30.211Z,97475.50
2022-12-11T03:18:07.611Z,97474.13
2022-12-11T03:20:41.277Z,97474.22
2022-12-11T03:23:21.607Z,97487.69
2022-12-11T03:25:55.114Z,97489.72
2022-12-11T03:28:28.345Z,97480.59
2022-12-11T03:30:57.929Z,97474.38
2022-12-11T03:33:34.068Z,97468.84
2022-12-11T03:36:07.419Z,97474.78
2022-12-11T03:38:38.643Z,97475.53
2022-12-11T03:41:08.838Z,97476.13
2022-12-11T03:43:38.403Z,97472.06
2022-12-11T03:46:09.815Z,97477.13
2022-12-11T03:48:43.325Z,97469.03
2022-12-11T03:51:11.089Z,97472.78
2022-12-11T03:53:40.714Z,97484.03
2022-12-11T03:56:11.863Z,97482.84
2022-12-11T03:58:39.630Z,97472.78
2022-12-11T04:01:09.868Z,97476.25
2022-12-11T04:03:39.463Z,97472.72
2022-12-11T04:06:07.560Z,97481.25
2022-12-11T04:08:35.231Z,97482.31
2022-12-11T04:11:22.252Z,97476.47
2022-12-11T04:14:10.203Z,97474.22
2022-12-11T04:16:37.015Z,97462.63
2022-12-11T04:19:23.058Z,97466.41
2022-12-11T04:22:08.486Z,97477.13
2022-12-11T04:24:36.160Z,97470.19
2022-12-11T04:27:03.829Z,97479.31
2022-12-11T04:29:31.488Z,97471.19
2022-12-11T04:31:59.299Z,97467.44
2022-12-11T04:34:28.341Z,97470.63
2022-12-11T04:36:56.065Z,97468.22
2022-12-11T04:39:23.693Z,97469.22
2022-12-11T04:41:51.321Z,97466.63
2022-12-11T04:44:18.998Z,97463.06
2022-12-11T04:46:46.729Z,97459.31
2022-12-11T04:49:14.355Z,97463.78
2022-12-11T04:51:43.687Z,97464.41
2022-12-11T04:54:11.354Z,97470.06
2022-12-11T04:56:39.007Z,97469.41
2022-12-11T04:59:06.650Z,97470.34
2022-12-11T05:01:34.358Z,97464.25
2022-12-11T05:04:02.097Z,97459.19
2022-12-11T05:06:29.896Z,97466.31
2022-12-11T05:08:59.014Z,97462.91
2022-12-11T05:11:26.718Z,97454.50
2022-12-11T05:13:54.385Z,97448.97
2022-12-11T05:16:22.048Z,97456.28
2022-12-11T05:18:49.795Z,97457.09
2022-12-11T05:21:17.453Z,97455.66
2022-12-11T05:23:45.129Z,97455.72
2022-12-11T05:26:17.269Z,97466.44
2022-12-11T05:28:49.401Z,97455.31
2022-12-11T05:31:19.957Z,97461.81
2022-12-11T05:33:48.904Z,97452.69
2022-12-11T05:36:18.274Z,97457.88
2022-12-11T05:38:46.350Z,97450.94
2022-12-11T05:41:17.833Z,97448.06
2022-12-11T05:43:46.027Z,97445.16
2022-12-11T05:46:16.763Z,97444.72
2022-12-11T05:48:50.730Z,97443.00
2022-12-11T05:51:19.217Z,97448.53
2022-12-11T05:53:48.825Z,97446.75
2022-12-11T05:56:20.291Z,97441.91
2022-12-11T05:58:49.056Z,97438.19
2022-12-11T06:01:21.631Z,97443.63
2022-12-11T06:03:49.844Z,97441.53
2022-12-11T06:06:18.009Z,97445.09
2022-12-11T06:08:45.683Z,97445.44
2022-12-11T06:11:18.390Z,97437.47
2022-12-11T06:13:50.116Z,97441.44
2022-12-11T06:16:17.894Z,97442.81
2022-12-11T06:18:46.251Z,97442.81
2022-12-11T06:21:15.628Z,97438.03
2022-12-11T06:23:44.938Z,97443.38
2022-12-11T06:26:13.633Z,97443.91
2022-12-11T06:28:41.322Z,97444.91
2022-12-11T06:31:10.872Z,97446.16
2022-12-11T06:33:38.565Z,97437.59
2022-12-11T06:36:08.181Z,97433.44
2022-12-11T06:38:36.424Z,97434.31
2022-12-11T06:41:05.781Z,97436.25
2022-12-11T06:43:34.532Z,97433.06
2022-12-11T06:46:04.700Z,97433.06
2022-12-11T06:48:33.775Z,97438.41
2022-12-11T06:51:05.791Z,97439.59
2022-12-11T06:53:33.424Z,97426.19
2022-12-11T06:56:04.000Z,97434.28
2022-12-11T06:58:31.693Z,97440.38
2022-12-11T07:00:59.540Z,97442.81
2022-12-11T07:03:27.243Z,97446.13
2022-12-11T07:06:01.299Z,97442.31
2022-12-11T07:08:29.598Z,97448.09
2022-12-11T07:11:03.752Z,97457.22
2022-12-11T07:13:31.406Z,97447.03
2022-12-11T07:15:59.208Z,97462.00
2022-12-11T07:18:26.981Z,97454.25
2022-12-11T07:20:56.032Z,97452.66
2022-12-11T07:23:23.685Z,97447.53
2022-12-11T07:25:51.593Z,97447.44
2022-12-11T07:28:24.888Z,97454.16
2022-12-11T07:30:52.591Z,97457.97
2022-12-11T07:33:20.303Z,97455.47
2022-12-11T07:35:47.977Z,97457.91
2022-12-11T07:38:17.112Z,97458.56
2022-12-11T07:40:44.851Z,97460.81
2022-12-11T07:43:12.571Z,97464.00
2022-12-11T07:45:40.288Z,97456.78
2022-12-11T07:48:08.285Z,97468.03
2022-12-11T07:50:39.716Z,97465.09
2022-12-11T07:53:07.791Z,97467.47
2022-12-11T07:55:36.784Z,97475.84
2022-12-11T07:58:04.756Z,97481.16
2022-12-11T08:00:32.424Z,97478.63
2022-12-11T08:03:00.163Z,97474.88
2022-12-11T08:05:27.815Z,97473.97
2022-12-11T08:07:55.678Z,97471.56
2022-12-11T08:10:23.395Z,97472.59
2022-12-11T08:12:52.414Z,97462.78
2022-12-11T08:15:20.082Z,97470.31
2022-12-11T08:17:47.872Z,97467.69
2022-12-11T08:20:16.017Z,97471.75
2022-12-11T08:22:44.897Z,97476.56
2022-12-11T08:25:12.767Z,97476.28
2022-12-11T08:27:40.840Z,97473.97
2022-12-11T08:30:11.317Z,97458.78
2022-12-11T08:32:39.049Z,97472.47
2022-12-11T08:35:27.880Z,97471.66
2022-12-11T08:37:55.586Z,97478.25
2022-12-11T08:40:23.322Z,97485.69
2022-12-11T08:42:52.214Z,97478.47
2022-12-11T08:45:21.203Z,97467.91
2022-12-11T08:47:48.877Z,97476.59
2022-12-11T08:50:16.801Z,97485.63
2022-12-11T08:52:44.488Z,97478.00
2022-12-11T08:55:12.949Z,97473.69
2022-12-11T08:57:40.836Z,97473.09
2022-12-11T09:00:10.597Z,97477.31
2022-12-11T09:02:39.716Z,97475.72
2022-12-11T09:05:10.097Z,97480.63
2022-12-11T09:07:38.976Z,97478.00
2022-12-11T09:10:08.430Z,97477.59
2022-12-11T09:12:36.209Z,97481.47
2022-12-11T09:15:04.591Z,97473.53
2022-12-11T09:17:32.372Z,97470.75
2022-12-11T09:20:01.472Z,97481.84
2022-12-11T09:22:29.257Z,97481.84
2022-12-11T09:24:56.964Z,97481.34
2022-12-11T09:27:24.593Z,97474.97
2022-12-11T09:29:52.445Z,97468.00
2022-12-11T09:32:20.079Z,97478.28
2022-12-11T09:34:50.997Z,97479.88
2022-12-11T09:37:20.172Z,97490.19
2022-12-11T09:39:48.119Z,97481.22
2022-12-11T09:42:20.830Z,97477.03
2022-12-11T09:44:55.293Z,97470.66
2022-12-11T09:47:28.660Z,97478.97
2022-12-11T09:50:03.956Z,97469.63
2022-12-11T09:52:38.452Z,97460.56
2022-12-11T09:55:16.252Z,97465.06
2022-12-11T09:57:54.022Z,97466.31
2022-12-11T10:00:28.496Z,97474.06
2022-12-11T10:03:35.522Z,97461.34
2022-12-11T10:06:13.475Z,97459.91
2022-12-11T10:08:48.958Z,97466.31
2022-12-11T10:11:57.621Z,97458.38
2022-12-11T10:14:36.885Z,97453.81
2022-12-11T10:17:12.188Z,97451.81
2022-12-11T10:19:42.371Z,97449.19
2022-12-11T10:22:20.954Z,97450.72
2022-12-11T10:25:13.272Z,97451.22
2022-12-11T10:27:42.202Z,97449.88
2022-12-11T10:30:17.162Z,97457.44
2022-12-11T10:32:53.070Z,97446.50
2022-12-11T10:35:29.758Z,97454.56
2022-12-11T10:38:03.045Z,97455.84
2022-12-11T10:40:36.109Z,97443.84
2022-12-11T10:43:03.802Z,97450.50
2022-12-11T10:45:31.654Z,97446.13
2022-12-11T10:48:07.766Z,97430.63
2022-12-11T10:50:35.407Z,97438.69
2022-12-11T10:53:03.226Z,97420.41
2022-12-11T10:55:41.132Z,97426.44
2022-12-11T10:58:17.895Z,97433.97
2022-12-11T11:00:46.910Z,97428.59
2022-12-11T11:03:23.390Z,97425.00
2022-12-11T11:06:02.389Z,97414.88
2022-12-11T11:08:40.403Z,97416.03
2022-12-11T11:11:22.488Z,97413.09
2022-12-11T11:13:53.819Z,97407.75
2022-12-11T11:16:23.271Z,97403.84
2022-12-11T11:18:54.720Z,97396.78
2022-12-11T11:22:00.068Z,97394.28
2022-12-11T11:24:36.338Z,97397.84
2022-12-11T11:27:14.111Z,97393.50
2022-12-11T11:29:42.890Z,97386.00
2022-12-11T11:32:20.847Z,97381.81
2022-12-11T11:34:48.539Z,97384.81
2022-12-11T11:37:24.631Z,97384.38
2022-12-11T11:39:57.399Z,97382.78
2022-12-11T11:42:38.669Z,97373.25
2022-12-11T11:45:13.932Z,97370.69
2022-12-11T11:47:46.408Z,97373.50
2022-12-11T11:53:06.712Z,97364.09
2022-12-11T11:55:43.664Z,97361.34
2022-12-11T11:58:18.005Z,97363.34
2022-12-11T12:00:45.657Z,97353.78
2022-12-11T12:03:16.361Z,97355.69
2022-12-11T12:05:49.613Z,97363.47
2022-12-11T12:08:43.043Z,97356.03
2022-12-11T12:11:20.282Z,97359.00
2022-12-11T12:14:00.023Z,97363.16
2022-12-11T12:16:55.121Z,97360.16
2022-12-11T12:19:39.561Z,97359.38
2022-12-11T12:22:25.373Z,97355.97
2022-12-11T12:25:16.134Z,97358.28
2022-12-11T12:27:52.607Z,97351.75
2022-12-11T12:30:24.081Z,97344.09
2022-12-11T12:33:10.357Z,97343.59
2022-12-11T12:35:41.514Z,97346.06
2022-12-11T12:38:16.347Z,97345.56
2022-12-11T12:41:01.102Z,97337.34
2022-12-11T12:43:47.401Z,97338.25
2022-12-11T12:46:34.262Z,97331.00
2022-12-11T12:49:25.720Z,97335.06
2022-12-11T12:51:54.140Z,97332.69
2022-12-11T12:54:23.041Z,97329.94
2022-12-11T12:56:51.047Z,97337.06
2022-12-11T12:59:30.602Z,97338.16
2022-12-11T13:02:01.711Z,97337.50
2022-12-11T13:07:29.828Z,97328.94
2022-12-11T13:10:01.254Z,97332.72
2022-12-11T13:12:35.678Z,97333.44
2022-12-11T13:15:03.377Z,97337.34
2022-12-11T13:17:39.760Z,97321.84
2022-12-11T13:20:19.018Z,97323.81
2022-12-11T13:22:57.434Z,97329.69
2022-12-11T13:25:30.759Z,97326.91
2022-12-11T13:28:08.803Z,97335.03
2022-12-11T13:30:36.583Z,97338.63
2022-12-11T13:33:08.513Z,97331.16
2022-12-11T13:35:36.649Z,97330.66
2022-12-11T13:38:13.996Z,97327.97
2022-12-11T13:40:43.889Z,97327.69
2022-12-11T13:43:19.947Z,97333.13
2022-12-11T13:45:51.360Z,97325.75
2022-12-11T13:48:26.142Z,97336.06
2022-12-11T13:50:54.903Z,97330.28
2022-12-11T13:53:23.597Z,97339.06
2022-12-11T13:56:03.016Z,97332.28
2022-12-11T13:58:32.107Z,97329.69
2022-12-11T14:01:08.639Z,97340.47
2022-12-11T14:03:42.208Z,97341.56
2022-12-11T14:06:18.059Z,97342.16
2022-12-11T14:08:49.183Z,97341.31
2022-12-11T14:11:22.890Z,97340.22
2022-12-11T14:13:51.491Z,97345.50
2022-12-11T14:16:24.013Z,97339.72
2022-12-11T14:18:54.476Z,97342.59
2022-12-11T14:21:24.333Z,97342.66
2022-12-11T14:23:54.093Z,97343.75
2022-12-11T14:26:23.913Z,97352.97
2022-12-11T14:28:52.450Z,97350.13
2022-12-11T14:31:29.973Z,97354.34
2022-12-11T14:34:03.336Z,97350.50
2022-12-11T14:36:35.715Z,97350.88
2022-12-11T14:39:09.459Z,97354.06
2022-12-11T14:41:44.404Z,97353.47
2022-12-11T14:44:16.703Z,97351.72
2022-12-11T14:46:47.871Z,97358.84
2022-12-11T14:49:24.276Z,97356.75
2022-12-11T14:51:55.167Z,97360.56
2022-12-11T14:54:30.655Z,97366.94
2022-12-11T14:56:59.960Z,97364.91
2022-12-11T14:59:32.287Z,97372.88
2022-12-11T15:02:02.430Z,97371.88
2022-12-11T15:04:34.428Z,97369.47
2022-12-11T15:07:02.082Z,97375.63
2022-12-11T15:09:37.962Z,97383.59
2022-12-11T15:12:12.268Z,97383.03
2022-12-11T15:14:46.833Z,97385.25
2022-12-11T15:17:16.179Z,97384.19
2022-12-11T15:19:49.431Z,97383.19
2022-12-11T15:22:18.343Z,97384.75
2022-12-11T15:24:47.475Z,97387.09
2022-12-11T15:27:26.290Z,97381.16
2022-12-11T15:29:54.238Z,97377.31
2022-12-11T15:32:22.720Z,97387.53
2022-12-11T15:34:54.085Z,97381.38
2022-12-11T15:37:24.111Z,97382.22
2022-12-11T15:39:55.125Z,97378.19
2022-12-11T15:42:27.872Z,97386.66
2022-12-11T15:44:56.384Z,97389.41
2022-12-11T15:47:27.446Z,97386.72
2022-12-11T15:50:00.707Z,97407.06
2022-12-11T15:52:28.898Z,97398.53
2022-12-11T15:54:56.613Z,97399.44
2022-12-11T15:57:25.662Z,97388.16
2022-12-11T15:59:56.015Z,97395.78
2022-12-11T16:02:26.627Z,97402.50
2022-12-11T16:04:55.904Z,97399.66
2022-12-11T16:07:26.117Z,97397.50
2022-12-11T16:09:54.365Z,97403.81
2022-12-11T16:12:22.051Z,97409.81
2022-12-11T16:14:49.717Z,97409.56
2022-12-11T16:17:17.428Z,97412.47
2022-12-11T16:19:45.828Z,97407.19
2022-12-11T16:22:15.748Z,97400.19
2022-12-11T16:24:44.351Z,97401.25
2022-12-11T16:27:12.047Z,97399.66
2022-12-11T16:29:41.871Z,97399.66
2022-12-11T16:32:10.124Z,97391.63
2022-12-11T16:34:38.830Z,97400.22
2022-12-11T16:37:10.021Z,97396.69
2022-12-11T16:39:39.796Z,97391.91
2022-12-11T16:42:07.728Z,97401.81
2022-12-11T16:44:39.555Z,97402.19
2022-12-11T16:47:10.293Z,97395.69
2022-12-11T16:49:38.147Z,97404.44
2022-12-11T16:52:06.305Z,97396.94
2022-12-11T16:54:34.008Z,97389.97
2022-12-11T16:57:02.997Z,97390.84
2022-12-11T16:59:36.643Z,97401.41
2022-12-11T17:02:05.251Z,97394.97
2022-12-11T17:04:33.017Z,97407.97
2022-12-11T17:07:00.685Z,97405.47
2022-12-11T17:09:28.742Z,97400.34
2022-12-11T17:11:56.996Z,97405.19
2022-12-11T17:14:26.055Z,97397.66
2022-12-11T17:16:53.782Z,97397.56
2022-12-11T17:19:21.477Z,97400.53
2022-12-11T17:21:51.825Z,97401.56
2022-12-11T17:24:19.702Z,97395.19
2022-12-11T17:26:47.617Z,97401.72
2022-12-11T17:29:15.637Z,97398.94
2022-12-11T17:31:44.600Z,97403.38
2022-12-11T17:34:12.534Z,97392.81
2022-12-11T17:36:40.233Z,97394.75
2022-12-11T17:39:08.335Z,97399.31
2022-12-11T17:41:36.034Z,97404.28
2022-12-11T17:44:03.654Z,97402.13
2022-12-11T17:46:31.696Z,97413.94
2022-12-11T17:49:03.153Z,97409.00
2022-12-11T17:51:30.912Z,97423.44
2022-12-11T17:53:58.624Z,97416.69
2022-12-11T17:56:27.059Z,97414.31
2022-12-11T17:58:55.001Z,97415.34
2022-12-11T18:01:22.768Z,97417.50
2022-12-11T18:03:50.580Z,97418.13
2022-12-11T18:06:19.758Z,97427.03
2022-12-11T18:08:47.511Z,97423.28
2022-12-11T18:11:21.573Z,97423.44
2022-12-11T18:13:50.408Z,97418.06
2022-12-11T18:16:20.022Z,97425.59
2022-12-11T18:18:50.305Z,97414.88
2022-12-11T18:21:22.016Z,97417.63
2022-12-11T18:23:50.976Z,97412.72
2022-12-11T18:26:19.586Z,97414.81
2022-12-11T18:28:48.364Z,97412.72
2022-12-11T18:31:16.981Z,97423.28
2022-12-11T18:33:45.811Z,97414.16
2022-12-11T18:36:15.426Z,97416.53
2022-12-11T18:38:46.993Z,97418.94
2022-12-11T18:41:15.923Z,97425.94
2022-12-11T18:43:44.109Z,97412.28
2022-12-11T18:46:14.828Z,97419.28
2022-12-11T18:48:45.825Z,97422.47
2022-12-11T18:51:17.065Z,97418.06
2022-12-11T18:53:46.670Z,97418.66
2022-12-11T18:56:17.098Z,97421.25
2022-12-11T18:58:45.622Z,97424.34
2022-12-11T19:01:16.738Z,97411.97
2022-12-11T19:03:44.504Z,97409.38
2022-12-11T19:06:14.932Z,97407.78
2022-12-11T19:08:42.999Z,97404.63
2022-12-11T19:11:15.682Z,97402.41
2022-12-11T19:13:43.891Z,97408.50
2022-12-11T19:16:16.847Z,97410.69
2022-12-11T19:18:45.343Z,97417.19
2022-12-11T19:21:14.070Z,97404.00
2022-12-11T19:23:43.411Z,97416.03
2022-12-11T19:26:13.457Z,97408.38
2022-12-11T19:28:41.539Z,97408.44
2022-12-11T19:31:10.983Z,97407.44
2022-12-11T19:33:39.391Z,97411.69
2022-12-11T19:36:10.356Z,97411.34
2022-12-11T19:38:38.932Z,97403.03
2022-12-11T19:41:07.808Z,97410.84
2022-12-11T19:43:37.617Z,97415.09
2022-12-11T19:46:07.976Z,97425.81
2022-12-11T19:48:37.439Z,97417.91
2022-12-11T19:51:06.038Z,97415.91
2022-12-11T19:53:34.606Z,97408.50
2022-12-11T19:56:02.432Z,97410.91
2022-12-11T19:58:30.141Z,97409.53
2022-12-11T20:00:59.305Z,97409.97
2022-12-11T20:03:27.645Z,97412.16
2022-12-11T20:06:01.331Z,97405.69
2022-12-11T20:08:44.062Z,97411.63
2022-12-11T20:11:17.974Z,97418.66
2022-12-11T20:13:46.753Z,97414.31
2022-12-11T20:16:17.338Z,97412.16
2022-12-11T20:18:45.570Z,97400.25
2022-12-11T20:21:15.674Z,97405.75
2022-12-11T20:23:45.210Z,97411.34
2022-12-11T20:26:15.634Z,97407.34
2022-12-11T20:28:43.449Z,97414.72
2022-12-11T20:31:18.221Z,97408.78
2022-12-11T20:33:49.751Z,97406.69
2022-12-11T20:36:20.351Z,97402.84
2022-12-11T20:38:48.752Z,97415.16
2022-12-11T20:41:18.994Z,97405.03
2022-12-11T20:43:49.040Z,97409.66
2022-12-11T20:46:18.669Z,97400.13
2022-12-11T20:48:54.609Z,97401.28
2022-12-11T20:51:26.260Z,97395.47
2022-12-11T20:53:58.329Z,97398.66
2022-12-11T20:56:28.416Z,97403.44
2022-12-11T20:58:56.769Z,97401.84
2022-12-11T21:01:27.314Z,97405.59
2022-12-11T21:03:55.523Z,97401.44
2022-12-11T21:06:26.368Z,97406.69
2022-12-11T21:08:54.694Z,97404.63
2022-12-11T21:11:22.824Z,97411.53
2022-12-11T21:13:51.105Z,97404.09
2022-12-11T21:16:19.514Z,97409.38
2022-12-11T21:18:48.231Z,97413.75
2022-12-11T21:21:16.632Z,97410.47
2022-12-11T21:23:46.298Z,97404.41
2022-12-11T21:26:14.290Z,97408.56
2022-12-11T21:28:42.405Z,97403.03
2022-12-11T21:31:14.370Z,97408.97
2022-12-11T21:33:42.314Z,97399.69
2022-12-11T21:36:13.230Z,97404.22
2022-12-11T21:38:41.692Z,97404.81
2022-12-11T21:41:13.601Z,97407.66
2022-12-11T21:44:12.923Z,97402.84
2022-12-11T21:46:30.353Z,97397.94
2022-12-11T21:48:58.100Z,97398.53
2022-12-11T21:51:31.046Z,97399.09
2022-12-11T21:54:03.042Z,97396.50
2022-12-11T21:56:32.286Z,97393.75
2022-12-11T21:59:01.352Z,97400.69
2022-12-11T22:01:31.420Z,97392.16
2022-12-11T22:03:59.656Z,97395.34
2022-12-11T22:06:29.359Z,97400.81
2022-12-11T22:08:57.154Z,97398.25
2022-12-11T22:11:26.972Z,97396.06
2022-12-11T22:13:56.380Z,97401.84
2022-12-11T22:16:24.922Z,97408.16
2022-12-11T22:18:52.669Z,97406.06
2022-12-11T22:21:20.866Z,97400.81
2022-12-11T22:23:48.611Z,97410.63
2022-12-11T22:26:19.579Z,97407.34
2022-12-11T22:28:49.373Z,97405.19
2022-12-11T22:31:22.049Z,97403.66
2022-12-11T22:33:51.161Z,97413.75
2022-12-11T22:36:19.019Z,97410.56
2022-12-11T22:38:46.972Z,97408.97
2022-12-11T22:41:23.444Z,97409.53
2022-12-11T22:43:51.467Z,97414.88
2022-12-11T22:46:23.884Z,97407.78
2022-12-11T22:48:52.008Z,97421.25
2022-12-11T22:51:19.827Z,97419.56
2022-12-11T22:53:48.073Z,97421.25
2022-12-11T22:56:16.351Z,97420.09
2022-12-11T22:58:44.036Z,97409.38
2022-12-11T23:01:13.577Z,97418.50
2022-12-11T23:03:42.850Z,97421.69
2022-12-11T23:06:14.117Z,97422.69
2022-12-11T23:08:42.687Z,97420.19
2022-12-11T23:11:13.257Z,97421.25
2022-12-11T23:13:41.076Z,97422.84
2022-12-11T23:16:08.984Z,97426.06
2022-12-11T23:18:36.836Z,97428.78
2022-12-11T23:21:06.358Z,97423.44
2022-12-11T23:23:34.036Z,97427.13
2022-12-11T23:26:01.766Z,97426.69
2022-12-11T23:28:29.598Z,97426.09
2022-12-11T23:30:57.307Z,97429.13
2022-12-11T23:33:25.095Z,97436.31
2022-12-11T23:35:52.816Z,97433.69
2022-12-11T23:38:21.895Z,97430.97
2022-12-11T23:40:57.454Z,97433.13
2022-12-11T23:43:25.091Z,97435.16
2022-12-11T23:45:52.807Z,97427.31
2022-12-11T23:48:20.625Z,97430.91
2022-12-11T23:50:48.617Z,97429.38
2022-12-11T23:53:16.650Z,97428.22
2022-12-11T23:55:46.394Z,97427.53
2022-12-11T23:58:14.228Z,97428.78
